Jump to content

  •  

INTERJET FLIGHT 4O3920 FLOWN ON 01-07-2018 BY CAPTAIN DEREK ROGY

Pilot StatsCaptain Derek Rogy (LDP86) • 1,521.5 total hours • 815 total flights [View Logbook]
FLIGHT DETAILS
StatusReceived and approved on 2018-01-07 at 17:01:02
Origin AirportLic Benito Juarez Intl (MMMX) • Mexico City, Mexico (7,314 feet MSL)
Filed Flight PlanFLIGHT PLANNER OFFLINE
Destination AirportJuan Santamaria Intl (MROC) • San Jose, Costa Rica (3,020 feet MSL)
Alternate AirportNone Filed
AirlineInterjet
AircraftAirbus A320 (320 / A320)
FS Aircraft UsedFSLabs A320X CFM - INTERJET XA-ECO
Cruising AltitudeFL370
Distance Flown1,032 nautical miles
Passengers Onboard74 passengers (49.33% full)
DEPARTURE DETAILS
Time Out11:28:17
Taxi Data117,251 lbs total with 10,962 lbs of fuel onboard
Takeoff Data12:05:14 (37 minutes after leaving gate/ramp) • 149,110 lbs total • 10° pitch at 158 knots
Departure METARMMMX 071747Z 11005KT 7SM SKC 17/01 A3037 NOSIG RMK SLP147 57006 966 HZY
ARRIVAL DETAILS
Landing Data15:30:14 • 135,890 lbs total • 4° pitch doing 135 knots at a rate of -209.92 feet/minute with 11,130 lbs of fuel onboard
Time In15:34:10 (4 minutes after landing)
Ramp Weight135,765 lbs total
Total Fuel Used-168 lbs
Total Block Time03:05:53 (3.1 hours) while 41 minutes were spent on the ground
Arrival METARMROC 072200Z 11011KT 080V150 9999 VCSH SCT035 23/16 A2998 NOSIG
MISCELLANEOUS DETAILS
LiveDISPATCH Version4.8.3.1
FS Version
FSUIPC Version5.12
OS VersionWindows 7 32-bit
Screen Resolution1920 x 1200
Pilot's CommentsNo Comments Reported
FLIGHT MAP